createdAt,value
2023-08-07T00:02:11.857Z,96392.81
2023-08-07T00:04:58.894Z,96393.63
2023-08-07T00:07:45.925Z,96399.25
2023-08-07T00:10:33.054Z,96387.66
2023-08-07T00:13:19.971Z,96396.56
2023-08-07T00:16:06.919Z,96402.44
2023-08-07T00:18:57.126Z,96388.19
2023-08-07T00:21:44.209Z,96395.41
2023-08-07T00:24:31.897Z,96392.19
2023-08-07T00:27:18.777Z,96398.63
2023-08-07T00:30:06.156Z,96397.50
2023-08-07T00:32:53.084Z,96387.25
2023-08-07T00:35:39.997Z,96392.84
2023-08-07T00:38:26.849Z,96388.81
2023-08-07T00:41:13.732Z,96391.97
2023-08-07T00:44:01.111Z,96400.53
2023-08-07T00:46:48.245Z,96396.22
2023-08-07T00:49:35.367Z,96400.78
2023-08-07T00:52:22.194Z,96399.16
2023-08-07T00:55:09.321Z,96398.34
2023-08-07T00:57:56.236Z,96393.22
2023-08-07T01:00:43.944Z,96402.59
2023-08-07T01:03:31.033Z,96392.06
2023-08-07T01:06:18.212Z,96394.44
2023-08-07T01:09:05.302Z,96396.31
2023-08-07T01:12:15.718Z,96390.13
2023-08-07T01:15:17.636Z,96389.06
2023-08-07T01:18:06.096Z,96396.84
2023-08-07T01:20:53.156Z,96388.78
2023-08-07T01:23:40.049Z,96393.31
2023-08-07T01:26:27.034Z,96392.50
2023-08-07T01:29:20.004Z,96391.94
2023-08-07T01:32:09.301Z,96392.19
2023-08-07T01:34:56.996Z,96404.25
2023-08-07T01:37:44.410Z,96386.97
2023-08-07T01:40:31.729Z,96388.03
2023-08-07T01:43:20.156Z,96392.59
2023-08-07T01:46:07.891Z,96390.41
2023-08-07T01:48:54.854Z,96397.66
2023-08-07T01:51:41.709Z,96398.47
2023-08-07T01:54:28.601Z,96394.16
2023-08-07T01:57:15.490Z,96400.84
2023-08-07T02:00:02.361Z,96399.44
2023-08-07T02:02:49.660Z,96400.75
2023-08-07T02:05:36.624Z,96401.00
2023-08-07T02:08:23.592Z,96403.13
2023-08-07T02:11:10.426Z,96397.97
2023-08-07T02:13:57.240Z,96400.94
2023-08-07T02:16:44.121Z,96402.00
2023-08-07T02:19:31.649Z,96404.91
2023-08-07T02:22:18.585Z,96414.03
2023-08-07T02:25:05.840Z,96408.91
2023-08-07T02:27:52.657Z,96414.53
2023-08-07T02:30:39.520Z,96415.81
2023-08-07T02:33:26.330Z,96423.06
2023-08-07T02:36:13.421Z,96417.94
2023-08-07T02:39:00.268Z,96426.22
2023-08-07T02:41:47.143Z,96425.66
2023-08-07T02:44:34.002Z,96419.50
2023-08-07T02:47:20.887Z,96425.91
2023-08-07T02:50:08.137Z,96428.84
2023-08-07T02:52:55.239Z,96430.13
2023-08-07T02:55:44.892Z,96426.63
2023-08-07T02:58:31.720Z,96423.41
2023-08-07T03:01:18.950Z,96435.97
2023-08-07T03:04:05.871Z,96437.84
2023-08-07T03:06:52.930Z,96443.72
2023-08-07T03:09:39.952Z,96445.56
2023-08-07T03:12:26.870Z,96454.09
2023-08-07T03:15:13.741Z,96460.53
2023-08-07T03:18:00.687Z,96471.50
2023-08-07T03:20:47.625Z,96466.63
2023-08-07T03:23:34.504Z,96470.59
2023-08-07T03:26:21.373Z,96461.16
2023-08-07T03:29:08.228Z,96476.44
2023-08-07T03:31:55.111Z,96475.63
2023-08-07T03:34:41.977Z,96473.19
2023-08-07T03:37:28.818Z,96490.13
2023-08-07T03:40:15.690Z,96484.16
2023-08-07T03:43:02.662Z,96490.38
2023-08-07T03:45:55.602Z,96485.22
2023-08-07T03:48:42.546Z,96490.84
2023-08-07T03:51:30.956Z,96493.75
2023-08-07T03:54:17.850Z,96496.69
2023-08-07T03:57:04.940Z,96505.22
2023-08-07T03:59:51.793Z,96506.28
2023-08-07T04:02:38.678Z,96510.84
2023-08-07T04:05:25.660Z,96506.75
2023-08-07T04:08:12.511Z,96511.31
2023-08-07T04:11:06.507Z,96515.00
2023-08-07T04:13:53.414Z,96523.91
2023-08-07T04:16:40.803Z,96523.31
2023-08-07T04:19:27.949Z,96521.91
2023-08-07T04:22:14.832Z,96529.63
2023-08-07T04:25:02.194Z,96535.00
2023-08-07T04:27:49.058Z,96537.94
2023-08-07T04:30:36.023Z,96534.66
2023-08-07T04:33:22.990Z,96545.38
2023-08-07T04:36:09.837Z,96552.88
2023-08-07T04:38:56.888Z,96553.94
2023-08-07T04:41:43.821Z,96553.59
2023-08-07T04:44:30.805Z,96568.84
2023-08-07T04:47:17.708Z,96565.59
2023-08-07T04:50:04.843Z,96562.09
2023-08-07T04:52:51.792Z,96568.75
2023-08-07T04:55:39.792Z,96567.94
2023-08-07T04:58:26.676Z,96582.41
2023-08-07T05:01:13.619Z,96585.09
2023-08-07T05:04:00.611Z,96576.47
2023-08-07T05:06:47.511Z,96583.91
2023-08-07T05:09:34.353Z,96584.97
2023-08-07T05:12:21.353Z,96590.00
2023-08-07T05:15:08.561Z,96592.09
2023-08-07T05:17:55.473Z,96600.16
2023-08-07T05:20:42.657Z,96600.38
2023-08-07T05:23:29.489Z,96604.09
2023-08-07T05:26:17.765Z,96612.97
2023-08-07T05:29:05.093Z,96611.56
2023-08-07T05:31:51.974Z,96619.03
2023-08-07T05:34:39.115Z,96616.56
2023-08-07T05:37:26.045Z,96626.50
2023-08-07T05:40:13.232Z,96624.63
2023-08-07T05:43:00.129Z,96627.31
2023-08-07T05:45:47.395Z,96619.25
2023-08-07T05:48:34.296Z,96633.97
2023-08-07T05:51:21.170Z,96631.50
2023-08-07T05:54:08.364Z,96634.66
2023-08-07T05:56:55.194Z,96641.31
2023-08-07T05:59:42.242Z,96643.19
2023-08-07T06:02:29.104Z,96640.72
2023-08-07T06:05:17.358Z,96648.19
2023-08-07T06:08:04.290Z,96647.34
2023-08-07T06:10:51.115Z,96656.44
2023-08-07T06:13:38.024Z,96658.06
2023-08-07T06:16:25.067Z,96658.06
2023-08-07T06:19:25.315Z,96656.44
2023-08-07T06:22:18.303Z,96671.47
2023-08-07T06:25:06.777Z,96672.53
2023-08-07T06:27:53.662Z,96674.66
2023-08-07T06:30:40.510Z,96673.00
2023-08-07T06:33:27.464Z,96678.34
2023-08-07T06:36:14.280Z,96676.72
2023-08-07T06:39:01.185Z,96680.22
2023-08-07T06:41:48.155Z,96689.09
2023-08-07T06:44:35.232Z,96690.94
2023-08-07T06:47:22.617Z,96685.84
2023-08-07T06:50:10.015Z,96695.75
2023-08-07T06:52:56.978Z,96705.63
2023-08-07T06:55:44.265Z,96704.81
2023-08-07T06:58:31.118Z,96705.88
2023-08-07T07:01:18.454Z,96702.59
2023-08-07T07:04:05.372Z,96704.44
2023-08-07T07:06:52.312Z,96718.66
2023-08-07T07:09:39.473Z,96715.19
2023-08-07T07:12:26.402Z,96714.97
2023-08-07T07:15:13.403Z,96728.38
2023-08-07T07:18:00.881Z,96715.41
2023-08-07T07:20:47.807Z,96724.50
2023-08-07T07:23:34.769Z,96724.50
2023-08-07T07:26:21.638Z,96727.19
2023-08-07T07:29:08.493Z,96736.25
2023-08-07T07:31:56.425Z,96737.09
2023-08-07T07:34:43.694Z,96745.16
2023-08-07T07:37:32.182Z,96747.84
2023-08-07T07:40:19.004Z,96743.28
2023-08-07T07:43:05.947Z,96742.47
2023-08-07T07:45:52.837Z,96755.03
2023-08-07T07:48:39.720Z,96764.72
2023-08-07T07:51:27.578Z,96759.38
2023-08-07T07:54:15.593Z,96772.97
2023-08-07T07:57:02.642Z,96769.28
2023-08-07T07:59:50.026Z,96778.34
2023-08-07T08:02:44.225Z,96779.16
2023-08-07T08:05:31.351Z,96788.25
2023-08-07T08:08:18.236Z,96782.09
2023-08-07T08:11:05.208Z,96791.34
2023-08-07T08:13:52.546Z,96788.66
2023-08-07T08:16:39.468Z,96795.91
2023-08-07T08:19:30.876Z,96800.44
2023-08-07T08:22:20.226Z,96816.53
2023-08-07T08:25:07.849Z,96812.22
2023-08-07T08:27:54.773Z,96815.94
2023-08-07T08:30:42.882Z,96822.13
2023-08-07T08:33:29.712Z,96822.13
2023-08-07T08:36:16.620Z,96828.31
2023-08-07T08:39:05.610Z,96826.66
2023-08-07T08:41:53.180Z,96832.00
2023-08-07T08:44:41.215Z,96837.63
2023-08-07T08:47:28.429Z,96843.22
2023-08-07T08:50:15.972Z,96840.53
2023-08-07T08:53:04.067Z,96840.53
2023-08-07T08:55:51.619Z,96851.25
2023-08-07T08:58:39.746Z,96854.13
2023-08-07T09:01:27.019Z,96860.94
2023-08-07T09:04:14.683Z,96860.13
2023-08-07T09:07:04.786Z,96859.28
2023-08-07T09:09:52.052Z,96859.28
2023-08-07T09:12:41.856Z,96869.16
2023-08-07T09:15:30.959Z,96879.09
2023-08-07T09:18:18.298Z,96879.91
2023-08-07T09:21:05.190Z,96881.75
2023-08-07T09:23:52.605Z,96881.56
2023-08-07T09:26:40.080Z,96885.88
2023-08-07T09:29:27.985Z,96890.41
2023-08-07T09:32:14.953Z,96890.41
2023-08-07T09:35:05.389Z,96893.91
2023-08-07T09:37:52.552Z,96901.94
2023-08-07T09:40:39.404Z,96903.00
2023-08-07T09:43:26.297Z,96901.94
2023-08-07T09:46:13.199Z,96907.31
2023-08-07T09:49:00.426Z,96913.72
2023-08-07T09:51:48.833Z,96921.75
2023-08-07T09:54:36.570Z,96922.78
2023-08-07T09:57:23.509Z,96926.31
2023-08-07T10:00:12.631Z,96930.81
2023-08-07T10:02:59.432Z,96931.66
2023-08-07T10:05:46.716Z,96933.75
2023-08-07T10:08:36.289Z,96924.88
2023-08-07T10:11:24.277Z,96934.56
2023-08-07T10:14:11.788Z,96930.25
2023-08-07T10:16:58.913Z,96931.06
2023-08-07T10:19:45.977Z,96938.06
2023-08-07T10:22:33.454Z,96931.66
2023-08-07T10:25:22.478Z,96937.03
2023-08-07T10:28:10.131Z,96946.09
2023-08-07T10:30:58.143Z,96945.28
2023-08-07T10:33:45.362Z,96940.72
2023-08-07T10:36:36.421Z,96945.88
2023-08-07T10:39:23.745Z,96938.44
2023-08-07T10:42:12.928Z,96948.94
2023-08-07T10:45:02.356Z,96950.81
2023-08-07T10:48:07.546Z,96954.31
2023-08-07T10:51:04.976Z,96948.13
2023-08-07T10:53:53.525Z,96949.75
2023-08-07T10:56:45.030Z,96955.13
2023-08-07T10:59:32.008Z,96946.25
2023-08-07T11:02:26.990Z,96947.91
2023-08-07T11:05:14.186Z,96944.16
2023-08-07T11:08:01.178Z,96948.72
2023-08-07T11:10:48.022Z,96942.31
2023-08-07T11:13:35.017Z,96952.84
2023-08-07T11:16:22.600Z,96949.72
2023-08-07T11:19:09.675Z,96959.16
2023-08-07T11:21:58.244Z,96955.66
2023-08-07T11:24:46.938Z,96941.81
2023-08-07T11:27:33.814Z,96957.66
2023-08-07T11:30:20.768Z,96945.94
2023-08-07T11:33:07.689Z,96955.84
2023-08-07T11:35:55.571Z,96957.47
2023-08-07T11:38:44.475Z,96962.00
2023-08-07T11:41:33.265Z,96965.28
2023-08-07T11:44:20.472Z,96963.50
2023-08-07T11:47:07.446Z,96965.34
2023-08-07T11:49:54.498Z,96962.59
2023-08-07T11:52:41.413Z,96973.25
2023-08-07T11:55:33.290Z,96975.84
2023-08-07T11:58:20.647Z,96975.63
2023-08-07T12:01:11.232Z,96986.97
2023-08-07T12:04:10.072Z,96988.81
2023-08-07T12:06:57.845Z,96983.66
2023-08-07T12:09:45.325Z,96981.22
2023-08-07T12:12:35.351Z,96987.63
2023-08-07T12:15:22.346Z,96985.16
2023-08-07T12:18:09.353Z,96996.13
2023-08-07T12:21:07.734Z,97003.38
2023-08-07T12:23:58.262Z,96999.00
2023-08-07T12:26:45.166Z,97003.81
2023-08-07T12:29:32.083Z,97001.94
2023-08-07T12:32:18.954Z,97009.16
2023-08-07T12:37:59.693Z,97002.16
2023-08-07T12:40:46.575Z,97001.31
2023-08-07T12:43:33.437Z,96998.06
2023-08-07T12:49:10.501Z,97018.47
2023-08-07T12:51:59.275Z,97014.97
2023-08-07T12:54:46.087Z,97012.28
2023-08-07T12:57:33.135Z,97018.69
2023-08-07T13:00:20.216Z,97014.16
2023-08-07T13:03:07.114Z,97018.69
2023-08-07T13:05:53.997Z,97019.50
2023-08-07T13:08:41.897Z,97023.25
2023-08-07T13:11:28.948Z,97022.41
2023-08-07T13:14:15.865Z,97034.78
2023-08-07T13:17:02.755Z,97038.50
2023-08-07T13:19:49.630Z,97036.66
2023-08-07T13:22:44.464Z,97043.84
2023-08-07T13:25:31.329Z,97042.84
2023-08-07T13:28:19.283Z,97046.34
2023-08-07T13:31:06.377Z,97046.34
2023-08-07T13:33:53.341Z,97049.81
2023-08-07T13:36:40.623Z,97048.78
2023-08-07T13:39:27.495Z,97042.59
2023-08-07T13:42:14.434Z,97057.66
2023-08-07T13:45:01.324Z,97040.72
2023-08-07T13:47:48.247Z,97045.91
2023-08-07T13:50:35.290Z,97061.16
2023-08-07T13:53:24.973Z,97063.63
2023-08-07T13:56:13.799Z,97064.66
2023-08-07T13:59:01.243Z,97070.84
2023-08-07T14:01:48.137Z,97069.78
2023-08-07T14:04:34.976Z,97079.72
2023-08-07T14:07:21.823Z,97082.38
2023-08-07T14:10:09.123Z,97083.22
2023-08-07T14:12:57.171Z,97089.38
2023-08-07T14:15:44.102Z,97089.38
2023-08-07T14:18:31.071Z,97088.03
2023-08-07T14:21:18.009Z,97085.81
2023-08-07T14:24:04.968Z,97095.72
2023-08-07T14:26:51.818Z,97089.06
2023-08-07T14:32:30.417Z,97094.97
2023-08-07T14:35:17.244Z,97094.53
2023-08-07T14:38:04.128Z,97108.34
2023-08-07T14:40:51.084Z,97101.69
2023-08-07T14:43:37.918Z,97103.13
2023-08-07T14:46:25.217Z,97106.63
2023-08-07T14:49:12.363Z,97115.84
2023-08-07T14:51:59.461Z,97117.28
2023-08-07T14:54:46.589Z,97118.09
2023-08-07T14:57:33.471Z,97125.09
2023-08-07T15:00:21.283Z,97131.09
2023-08-07T15:03:08.256Z,97130.63
2023-08-07T15:05:55.144Z,97135.78
2023-08-07T15:08:42.119Z,97136.38
2023-08-07T15:11:29.242Z,97138.47
2023-08-07T15:14:16.289Z,97145.69
2023-08-07T15:17:03.354Z,97146.75
2023-08-07T15:19:50.241Z,97145.94
2023-08-07T15:22:37.139Z,97149.63
2023-08-07T15:25:23.982Z,97155.00
2023-08-07T15:28:10.943Z,97160.34
2023-08-07T15:30:57.838Z,97145.31
2023-08-07T15:33:48.504Z,97155.00
2023-08-07T15:36:35.387Z,97156.66
2023-08-07T15:39:22.222Z,97155.84
2023-08-07T15:42:09.092Z,97146.13
2023-08-07T15:44:55.939Z,97155.84
2023-08-07T15:47:42.898Z,97157.47
2023-08-07T15:50:31.454Z,97160.75
2023-08-07T15:53:18.358Z,97173.34
2023-08-07T15:56:05.261Z,97160.16
2023-08-07T15:58:52.098Z,97167.97
2023-08-07T16:01:39.023Z,97166.72
2023-08-07T16:04:26.051Z,97164.03
2023-08-07T16:07:13.017Z,97162.16
2023-08-07T16:09:59.941Z,97165.91
2023-08-07T16:12:47.038Z,97167.78
2023-08-07T16:15:34.949Z,97177.44
2023-08-07T16:18:21.869Z,97166.72
2023-08-07T16:21:08.813Z,97164.84
2023-08-07T16:23:55.693Z,97163.81
2023-08-07T16:26:44.920Z,97160.91
2023-08-07T16:29:32.187Z,97165.22
2023-08-07T16:32:19.079Z,97165.84
2023-08-07T16:35:06.965Z,97172.22
2023-08-07T16:37:53.997Z,97173.91
2023-08-07T16:40:42.451Z,97173.91
2023-08-07T16:43:29.405Z,97172.22
2023-08-07T16:46:18.034Z,97166.88
2023-08-07T16:49:04.987Z,97169.53
2023-08-07T16:51:55.187Z,97169.53
2023-08-07T16:54:42.275Z,97171.41
2023-08-07T16:57:29.128Z,97170.41
2023-08-07T17:00:16.448Z,97168.53
2023-08-07T17:03:03.836Z,97172.84
2023-08-07T17:05:51.160Z,97179.03
2023-08-07T17:08:38.451Z,97176.13
2023-08-07T17:11:28.179Z,97169.72
2023-08-07T17:14:17.220Z,97180.47
2023-08-07T17:17:04.513Z,97173.22
2023-08-07T17:19:54.749Z,97174.28
2023-08-07T17:22:44.935Z,97182.91
2023-08-07T17:25:32.857Z,97177.53
2023-08-07T17:28:19.954Z,97179.41
2023-08-07T17:31:07.329Z,97183.72
2023-08-07T17:33:54.352Z,97178.34
2023-08-07T17:36:41.441Z,97180.59
2023-08-07T17:39:28.419Z,97176.06
2023-08-07T17:42:15.366Z,97187.03
2023-08-07T17:45:03.346Z,97182.25
2023-08-07T17:47:50.580Z,97185.97
2023-08-07T17:50:37.653Z,97188.44
2023-08-07T17:53:24.554Z,97190.09
2023-08-07T17:56:11.565Z,97191.72
2023-08-07T17:58:58.484Z,97195.44
2023-08-07T18:01:45.415Z,97204.13
2023-08-07T18:04:32.416Z,97209.25
2023-08-07T18:07:19.506Z,97210.88
2023-08-07T18:10:08.739Z,97202.84
2023-08-07T18:12:56.085Z,97203.88
2023-08-07T18:15:42.919Z,97204.69
2023-08-07T18:18:29.770Z,97207.16
2023-08-07T18:21:16.673Z,97200.38
2023-08-07T18:24:04.319Z,97209.50
2023-08-07T18:26:51.203Z,97204.56
2023-08-07T18:29:38.040Z,97208.50
2023-08-07T18:32:25.050Z,97205.44
2023-08-07T18:35:12.047Z,97212.66
2023-08-07T18:37:58.939Z,97226.09
2023-08-07T18:40:45.866Z,97214.53
2023-08-07T18:43:32.945Z,97218.22
2023-08-07T18:46:19.822Z,97221.97
2023-08-07T18:49:06.697Z,97213.91
2023-08-07T18:51:53.553Z,97215.78
2023-08-07T18:54:41.056Z,97224.66
2023-08-07T18:57:28.030Z,97218.91
2023-08-07T19:00:15.872Z,97225.50
2023-08-07T19:03:02.855Z,97226.78
2023-08-07T19:05:49.904Z,97222.06
2023-08-07T19:08:38.348Z,97227.44
2023-08-07T19:14:13.890Z,97224.59
2023-08-07T19:17:01.597Z,97226.22
2023-08-07T19:19:49.631Z,97231.84
2023-08-07T19:22:36.635Z,97226.69
2023-08-07T19:25:23.529Z,97228.53
2023-08-07T19:28:10.538Z,97230.63
2023-08-07T19:31:05.534Z,97231.22
2023-08-07T19:33:53.397Z,97230.19
2023-08-07T19:36:41.616Z,97232.50
2023-08-07T19:39:28.663Z,97228.59
2023-08-07T19:42:15.639Z,97224.69
2023-08-07T19:45:02.851Z,97229.25
2023-08-07T19:47:49.840Z,97239.16
2023-08-07T19:50:37.848Z,97235.66
2023-08-07T19:53:24.735Z,97240.63
2023-08-07T19:56:11.609Z,97242.25
2023-08-07T19:58:58.515Z,97236.91
2023-08-07T20:01:45.430Z,97236.09
2023-08-07T20:04:32.814Z,97230.72
2023-08-07T20:07:25.543Z,97238.75
2023-08-07T20:10:13.887Z,97235.25
2023-08-07T20:13:00.804Z,97231.75
2023-08-07T20:15:47.793Z,97238.38
2023-08-07T20:18:34.655Z,97237.78
2023-08-07T20:21:21.510Z,97240.09
2023-08-07T20:24:08.334Z,97239.03
2023-08-07T20:26:59.135Z,97241.47
2023-08-07T20:29:46.052Z,97238.22
2023-08-07T20:32:32.956Z,97233.72
2023-08-07T20:35:20.266Z,97236.00
2023-08-07T20:38:07.132Z,97236.00
2023-08-07T20:40:54.002Z,97231.84
2023-08-07T20:43:40.865Z,97231.25
2023-08-07T20:46:27.748Z,97231.69
2023-08-07T20:49:15.109Z,97242.84
2023-08-07T20:52:02.417Z,97249.44
2023-08-07T20:54:49.351Z,97244.31
2023-08-07T20:57:36.311Z,97247.22
2023-08-07T21:00:23.164Z,97246.59
2023-08-07T21:03:10.042Z,97246.59
2023-08-07T21:05:57.189Z,97251.34
2023-08-07T21:08:44.091Z,97242.72
2023-08-07T21:11:30.977Z,97241.91
2023-08-07T21:14:17.869Z,97243.31
2023-08-07T21:17:05.902Z,97246.22
2023-08-07T21:19:52.825Z,97244.56
2023-08-07T21:22:39.808Z,97251.78
2023-08-07T21:25:26.786Z,97250.34
2023-08-07T21:28:13.644Z,97243.56
2023-08-07T21:31:00.624Z,97254.28
2023-08-07T21:33:47.514Z,97247.72
2023-08-07T21:36:34.353Z,97248.94
2023-08-07T21:39:21.242Z,97241.94
2023-08-07T21:42:08.462Z,97243.00
2023-08-07T21:44:55.309Z,97273.28
2023-08-07T21:47:44.444Z,97310.81
2023-08-07T21:50:32.123Z,97276.78
2023-08-07T21:53:19.041Z,97276.78
2023-08-07T21:56:05.945Z,97269.97
2023-08-07T21:58:52.809Z,97265.25
2023-08-07T22:01:39.838Z,97263.63
2023-08-07T22:04:26.734Z,97268.16
2023-08-07T22:07:13.704Z,97258.69
2023-08-07T22:10:01.043Z,97264.03
2023-08-07T22:12:47.988Z,97260.97
2023-08-07T22:15:34.927Z,97248.59
2023-08-07T22:18:21.913Z,97253.97
2023-08-07T22:21:08.789Z,97249.22
2023-08-07T22:23:55.818Z,97240.19
2023-08-07T22:26:42.677Z,97252.53
2023-08-07T22:29:29.661Z,97243.69
2023-08-07T22:32:16.632Z,97240.38
2023-08-07T22:35:04.085Z,97237.72
2023-08-07T22:37:51.072Z,97238.13
2023-08-07T22:40:38.005Z,97233.00
2023-08-07T22:43:25.019Z,97227.88
2023-08-07T22:46:11.981Z,97228.88
2023-08-07T22:48:58.884Z,97223.34
2023-08-07T22:51:46.012Z,97215.53
2023-08-07T22:54:32.942Z,97229.13
2023-08-07T22:57:19.828Z,97225.63
2023-08-07T23:00:08.306Z,97218.81
2023-08-07T23:02:56.572Z,97220.69
2023-08-07T23:05:43.569Z,97214.75
2023-08-07T23:08:30.435Z,97211.44
2023-08-07T23:11:17.258Z,97207.31
2023-08-07T23:14:04.455Z,97208.78
2023-08-07T23:16:51.453Z,97206.31
2023-08-07T23:19:38.316Z,97205.69
2023-08-07T23:22:25.181Z,97213.72
2023-08-07T23:25:12.073Z,97212.09
2023-08-07T23:27:58.906Z,97211.47
2023-08-07T23:30:45.879Z,97203.66
2023-08-07T23:33:32.740Z,97203.88
2023-08-07T23:36:19.620Z,97200.16
2023-08-07T23:39:06.453Z,97199.34
2023-08-07T23:41:53.687Z,97203.69
2023-08-07T23:44:40.610Z,97206.19
2023-08-07T23:47:27.520Z,97209.03
2023-08-07T23:50:14.552Z,97209.47
2023-08-07T23:53:01.532Z,97201.03
2023-08-07T23:55:48.432Z,97202.88
2023-08-07T23:58:35.284Z,97199.38
